Portada
METAR-TAF:

METAR-TAF

Aeroports :

Gombe Lawanti International Airport

Gombe, Nigèria

latitud: 10-18-19N, longitud: 10-54-31E, altitud: 505 m

Observació

L'informe es va fer fa 12 hores i 18 minuts, a les 17:00 UTC
Vent 10 kt del Est/Sud-Est
Temperatura 24°C
Humitat 89%
Pressió 1008 hPa
Visibilitat: 8000 m
Cel ennuvolat a una alçada de 900 ft
Escasses núvols a una alçada de 1900 ft, Cumulonimbus.
tempesta

METAR: DNGO 271700Z 12010KT 8000 TS BKN009 FEW019CB 24/22 Q1008

Hora: 06:18 (05:18 UTC)

Pronòstic

L'informe es va fer fa 12 hores i 18 minuts, a les 17:00 UTC
Pronòstic vàlid del 26 a les 18 UTC al 27 a les 24 UTC
Vent 10 kt del Sud/Sud-Oest
Visibilitat 10 km o més
Núvols disperses a una alçada de 1300 ft
Temporalment
l' 26 a les 19 UTC al 27 a les 00 UTC
Cel ennuvolat a una alçada de 1000 ft
Escasses núvols a una alçada de 1900 ft, Cumulonimbus.
tempesta

TAF: DNGO 261700Z 2618/2724 20010KT 9999 SCT013 TEMPO 2619/2700 TS BKN010 FEW019CB

Observacions i pronòstics meteorològics de més de 4000 aeroports (METAR i TAF).

Les estacions disponibles són els punts grocs i vermells al mapa.

Posi el ratolí al punt desitjat per veure el nom de l'estació.

Feu clic per veure les observacions i els pronòstics meteorològics.

Per canviar el mapa: feu clic els botons verds amb una creu de color negre per apropar; al botó verd amb un guió per allunyar la imatge; o en les fletxes verdes per a mapes adjacents.


METAR-TAF: